Time;durP1;ratioP1;P1;durP2;ratioP2;P2;SDS_P1;SDS_P2;PMS_P1;PMS_P2;Temp;Humidity;BMP_temperature;BMP_pressure;BME280_temperature;BME280_humidity;BME280_pressure;Samples;Min_cycle;Max_cycle;Signal;HPM_P1;HPM_P2
2021/01/13 00:01:58;;;;;;;;;;;27.80;38.20;;;;;;5072801;28;19990;-57
2021/01/13 00:04:24;;;;;;;;;;;27.70;38.10;;;;;;5075398;28;20363;-58
2021/01/13 00:06:50;;;;;;;;;;;27.70;38.20;;;;;;5088035;28;19962;-56
2021/01/13 00:09:15;;;;;;;;;;;27.70;38.20;;;;;;5072694;28;19909;-57
2021/01/13 00:11:41;;;;;;;;;;;27.70;38.10;;;;;;5072812;28;19920;-57
2021/01/13 00:14:07;;;;;;;;;;;27.70;38.10;;;;;;5072929;28;19931;-57
2021/01/13 00:16:32;;;;;;;;;;;27.70;38.10;;;;;;5089213;28;19924;-57
2021/01/13 00:18:58;;;;;;;;;;;27.70;38.10;;;;;;5092745;28;19951;-57
2021/01/13 00:21:23;;;;;;;;;;;27.60;38.00;;;;;;5076398;28;19952;-57
2021/01/13 00:23:49;;;;;;;;;;;27.60;38.00;;;;;;5073557;28;19909;-57
2021/01/13 00:26:25;;;;;;;;;;;27.70;38.00;;;;;;5092747;28;19926;-57
2021/01/13 00:28:51;;;;;;;;;;;27.60;37.90;;;;;;5090903;28;20251;-57
2021/01/13 00:31:16;;;;;;;;;;;27.60;38.00;;;;;;5079834;28;19920;-57
2021/01/13 00:33:48;;;;;;;;;;;27.60;38.00;;;;;;5092963;28;19987;-57
2021/01/13 00:36:20;;;;;;;;;;;27.60;37.90;;;;;;5092585;28;20373;-57
2021/01/13 00:38:46;;;;;;;;;;;27.60;37.90;;;;;;5090773;28;20255;-57
2021/01/13 00:41:12;;;;;;;;;;;27.60;38.00;;;;;;5092675;28;20022;-57
2021/01/13 00:43:38;;;;;;;;;;;27.60;37.90;;;;;;5096486;28;19908;-57
2021/01/13 00:46:03;;;;;;;;;;;27.60;37.90;;;;;;5081919;28;20468;-61
2021/01/13 00:48:29;;;;;;;;;;;27.50;37.90;;;;;;5088941;28;20277;-57
2021/01/13 00:50:54;;;;;;;;;;;27.50;37.80;;;;;;5094786;28;19923;-57
2021/01/13 00:53:20;;;;;;;;;;;27.50;37.80;;;;;;5076378;28;19916;-57
2021/01/13 00:55:46;;;;;;;;;;;27.60;37.80;;;;;;5090343;28;20368;-57
2021/01/13 00:58:11;;;;;;;;;;;27.50;37.80;;;;;;5096190;28;19922;-58
2021/01/13 01:00:37;;;;;;;;;;;27.50;37.80;;;;;;5084728;28;19916;-57
2021/01/13 01:03:02;;;;;;;;;;;27.50;37.70;;;;;;5078806;28;19912;-56
2021/01/13 01:05:28;;;;;;;;;;;27.50;37.70;;;;;;5075969;28;19916;-58
2021/01/13 01:07:54;;;;;;;;;;;27.50;37.80;;;;;;5075842;28;19916;-57
2021/01/13 01:10:23;;;;;;;;;;;27.50;37.80;;;;;;5076198;28;19912;-57
2021/01/13 01:12:48;;;;;;;;;;;27.40;37.70;;;;;;5087624;28;19919;-56
2021/01/13 01:15:14;;;;;;;;;;;27.40;37.80;;;;;;5096028;28;20289;-58
2021/01/13 01:17:39;;;;;;;;;;;27.40;37.80;;;;;;5096189;28;20358;-58
2021/01/13 01:20:05;;;;;;;;;;;27.40;37.80;;;;;;5094761;28;20263;-56
2021/01/13 01:22:31;;;;;;;;;;;27.40;37.80;;;;;;5091986;28;20399;-56
2021/01/13 01:24:56;;;;;;;;;;;27.40;37.80;;;;;;5090093;28;19935;-57
2021/01/13 01:27:22;;;;;;;;;;;27.40;37.80;;;;;;5076664;28;19916;-56
2021/01/13 01:29:47;;;;;;;;;;;27.40;37.80;;;;;;5076288;28;20366;-58
2021/01/13 01:32:13;;;;;;;;;;;27.40;37.70;;;;;;5075719;28;19912;-58
2021/01/13 01:34:38;;;;;;;;;;;27.40;37.70;;;;;;5078529;28;19966;-57
2021/01/13 01:37:04;;;;;;;;;;;27.40;37.70;;;;;;5088322;28;20293;-56
2021/01/13 01:39:29;;;;;;;;;;;27.40;37.70;;;;;;5076601;28;19955;-56
2021/01/13 01:41:55;;;;;;;;;;;27.40;37.70;;;;;;5075577;28;19932;-57
2021/01/13 01:44:20;;;;;;;;;;;27.40;37.70;;;;;;5092091;28;20305;-57
2021/01/13 01:46:47;;;;;;;;;;;27.40;37.70;;;;;;5083711;28;19916;-57
2021/01/13 01:49:13;;;;;;;;;;;27.40;37.60;;;;;;5094139;28;19936;-57
2021/01/13 01:51:42;;;;;;;;;;;27.30;37.70;;;;;;5087860;28;20525;-57
2021/01/13 01:54:10;;;;;;;;;;;27.30;37.70;;;;;;5077150;28;19912;-57
2021/01/13 01:56:36;;;;;;;;;;;27.30;37.60;;;;;;5095532;28;19991;-58
2021/01/13 01:59:12;;;;;;;;;;;27.30;37.60;;;;;;5093491;28;19999;-57
2021/01/13 02:01:41;;;;;;;;;;;27.40;37.50;;;;;;5075205;28;20282;-57
2021/01/13 02:04:23;;;;;;;;;;;27.40;37.50;;;;;;5087945;28;19916;-57
2021/01/13 02:06:48;;;;;;;;;;;27.30;37.40;;;;;;5092485;28;19964;-57
2021/01/13 02:09:14;;;;;;;;;;;27.40;37.60;;;;;;5088807;28;19917;-57
2021/01/13 02:11:39;;;;;;;;;;;27.30;37.50;;;;;;5075098;28;20355;-56
2021/01/13 02:14:05;;;;;;;;;;;27.30;37.50;;;;;;5090331;28;19969;-56
2021/01/13 02:16:31;;;;;;;;;;;27.40;37.50;;;;;;5093172;28;19923;-56
2021/01/13 02:18:56;;;;;;;;;;;27.40;37.30;;;;;;5080545;28;19956;-57
2021/01/13 02:21:22;;;;;;;;;;;27.40;37.30;;;;;;5078251;28;19935;-57
2021/01/13 02:23:48;;;;;;;;;;;27.30;37.40;;;;;;5056537;28;20402;-57
2021/01/13 02:26:32;;;;;;;;;;;27.30;37.40;;;;;;5082905;28;19919;-57
2021/01/13 02:28:58;;;;;;;;;;;27.30;37.30;;;;;;5093198;28;19959;-57
2021/01/13 02:31:33;;;;;;;;;;;27.30;37.30;;;;;;5094531;28;19955;-57
2021/01/13 02:34:02;;;;;;;;;;;27.30;37.30;;;;;;5094856;28;19953;-57
2021/01/13 02:36:27;;;;;;;;;;;27.40;37.20;;;;;;5076358;28;19916;-57
2021/01/13 02:38:53;;;;;;;;;;;27.40;37.20;;;;;;5082252;28;19916;-57
2021/01/13 02:41:19;;;;;;;;;;;27.40;37.20;;;;;;5094409;28;19916;-56
2021/01/13 02:43:54;;;;;;;;;;;27.40;37.20;;;;;;5094342;28;20389;-57
2021/01/13 02:46:29;;;;;;;;;;;27.30;37.20;;;;;;5079521;28;20003;-57
2021/01/13 02:48:55;;;;;;;;;;;27.30;37.20;;;;;;5105922;28;19939;-57
2021/01/13 02:51:20;;;;;;;;;;;27.30;37.10;;;;;;5088662;28;19952;-56
2021/01/13 02:53:46;;;;;;;;;;;27.30;37.10;;;;;;5087796;28;19966;-58
2021/01/13 02:56:15;;;;;;;;;;;27.40;37.10;;;;;;5092697;28;19912;-57
2021/01/13 02:58:40;;;;;;;;;;;27.40;37.10;;;;;;5094253;28;20015;-58
2021/01/13 03:01:06;;;;;;;;;;;27.40;37.10;;;;;;5094344;28;19993;-57
2021/01/13 03:03:32;;;;;;;;;;;27.30;37.00;;;;;;5093919;28;19915;-58
2021/01/13 03:06:07;;;;;;;;;;;27.30;37.00;;;;;;5079167;28;20332;-57
2021/01/13 03:08:40;;;;;;;;;;;27.40;37.10;;;;;;5073642;28;20370;-57
2021/01/13 03:11:05;;;;;;;;;;;27.30;37.00;;;;;;5088371;28;20015;-57
2021/01/13 03:13:32;;;;;;;;;;;27.30;37.00;;;;;;5073567;28;19947;-57
2021/01/13 03:15:57;;;;;;;;;;;27.40;37.10;;;;;;5075212;28;19967;-57
2021/01/13 03:18:32;;;;;;;;;;;27.30;37.00;;;;;;5053668;28;19920;-57
2021/01/13 03:21:08;;;;;;;;;;;27.40;37.00;;;;;;5060118;28;20396;-57
2021/01/13 03:23:46;;;;;;;;;;;27.30;36.90;;;;;;5082098;28;20047;-56
2021/01/13 03:26:12;;;;;;;;;;;27.30;37.00;;;;;;5073306;28;19909;-57
2021/01/13 03:28:38;;;;;;;;;;;27.30;36.90;;;;;;5073468;28;19970;-57
2021/01/13 03:31:06;;;;;;;;;;;27.30;37.00;;;;;;5087657;28;20028;-56
2021/01/13 03:33:51;;;;;;;;;;;27.30;37.00;;;;;;5093007;28;19915;-57
2021/01/13 03:36:28;;;;;;;;;;;27.30;37.00;;;;;;5088110;28;19912;-56
2021/01/13 03:39:04;;;;;;;;;;;27.30;36.90;;;;;;5092679;28;19920;-58
2021/01/13 03:41:37;;;;;;;;;;;27.30;36.90;;;;;;5074112;28;19963;-57
2021/01/13 03:44:02;;;;;;;;;;;27.30;37.00;;;;;;5087841;28;20429;-57
2021/01/13 03:46:28;;;;;;;;;;;27.20;37.00;;;;;;5069892;28;19992;-56
2021/01/13 03:48:53;;;;;;;;;;;27.30;36.90;;;;;;5084200;28;20374;-57
2021/01/13 03:51:25;;;;;;;;;;;27.20;36.90;;;;;;5077814;28;19946;-58
2021/01/13 03:53:51;;;;;;;;;;;27.20;36.90;;;;;;5089790;28;20177;-57
2021/01/13 03:56:21;;;;;;;;;;;27.30;36.90;;;;;;5072441;28;19909;-57
2021/01/13 03:58:49;;;;;;;;;;;27.20;36.80;;;;;;5091190;28;19939;-57
2021/01/13 04:01:15;;;;;;;;;;;27.30;36.80;;;;;;5075749;28;19912;-57
2021/01/13 04:03:59;;;;;;;;;;;27.20;36.80;;;;;;5091010;28;19998;-58
2021/01/13 04:06:24;;;;;;;;;;;27.20;36.80;;;;;;5092159;28;20309;-57
2021/01/13 04:08:50;;;;;;;;;;;27.20;36.80;;;;;;5092026;28;19922;-57
2021/01/13 04:11:17;;;;;;;;;;;27.20;36.80;;;;;;5075573;28;19912;-56
2021/01/13 04:13:43;;;;;;;;;;;27.20;36.70;;;;;;5071786;28;19944;-57
2021/01/13 04:16:12;;;;;;;;;;;27.20;36.70;;;;;;5072158;28;20008;-57
2021/01/13 04:18:38;;;;;;;;;;;27.20;36.70;;;;;;5071694;28;19923;-56
2021/01/13 04:21:05;;;;;;;;;;;27.20;36.80;;;;;;5072895;28;19913;-56
2021/01/13 04:23:30;;;;;;;;;;;27.20;36.80;;;;;;5086624;28;20447;-57
2021/01/13 04:25:56;;;;;;;;;;;27.20;36.70;;;;;;5072734;28;19954;-57
2021/01/13 04:28:22;;;;;;;;;;;27.20;36.70;;;;;;5087291;28;19912;-57
2021/01/13 04:30:47;;;;;;;;;;;27.20;36.60;;;;;;5029163;28;1737510;-57
2021/01/13 04:33:13;;;;;;;;;;;27.30;36.60;;;;;;5092585;28;19916;-56
2021/01/13 04:35:39;;;;;;;;;;;27.20;36.50;;;;;;5081207;28;19908;-57
2021/01/13 04:38:04;;;;;;;;;;;27.20;36.50;;;;;;5072614;28;19963;-56
2021/01/13 04:40:35;;;;;;;;;;;27.20;36.60;;;;;;5073181;28;19984;-57
2021/01/13 04:43:04;;;;;;;;;;;27.20;36.50;;;;;;5072719;28;19916;-57
2021/01/13 04:45:49;;;;;;;;;;;27.20;36.60;;;;;;5073045;28;19999;-57
2021/01/13 04:48:15;;;;;;;;;;;27.30;36.60;;;;;;5082737;28;20267;-57
2021/01/13 04:50:47;;;;;;;;;;;27.20;36.50;;;;;;5092198;28;19919;-56
2021/01/13 04:53:13;;;;;;;;;;;27.30;36.60;;;;;;5090986;28;19912;-57
2021/01/13 04:55:45;;;;;;;;;;;27.20;36.50;;;;;;5080445;28;20325;-57
2021/01/13 04:58:20;;;;;;;;;;;27.20;36.50;;;;;;5091007;28;20374;-57
2021/01/13 05:01:04;;;;;;;;;;;27.20;36.50;;;;;;5072246;28;19917;-56
2021/01/13 05:03:39;;;;;;;;;;;27.20;36.40;;;;;;5084368;28;19908;-57
2021/01/13 05:06:24;;;;;;;;;;;27.20;36.40;;;;;;5092463;28;19912;-57
2021/01/13 05:09:03;;;;;;;;;;;27.20;36.40;;;;;;5075915;28;20361;-57
2021/01/13 05:11:33;;;;;;;;;;;27.20;36.50;;;;;;5090126;28;20326;-56
2021/01/13 05:13:59;;;;;;;;;;;27.20;36.40;;;;;;5084405;28;19915;-57
2021/01/13 05:16:24;;;;;;;;;;;27.20;36.50;;;;;;5074118;28;19913;-54
2021/01/13 05:18:50;;;;;;;;;;;27.20;36.50;;;;;;5090876;28;20476;-57
2021/01/13 05:21:16;;;;;;;;;;;27.20;36.40;;;;;;5092197;28;19913;-57
2021/01/13 05:23:43;;;;;;;;;;;27.20;36.40;;;;;;5092133;28;20327;-56
2021/01/13 05:26:09;;;;;;;;;;;27.20;36.30;;;;;;5074327;28;19932;-56
2021/01/13 05:28:34;;;;;;;;;;;27.20;36.30;;;;;;5073486;28;20355;-57
2021/01/13 05:31:00;;;;;;;;;;;27.20;36.30;;;;;;5085092;28;20043;-56
2021/01/13 05:33:26;;;;;;;;;;;27.20;36.30;;;;;;5075616;28;19973;-57
2021/01/13 05:35:52;;;;;;;;;;;27.20;36.30;;;;;;5074612;28;20362;-57
2021/01/13 05:38:38;;;;;;;;;;;27.20;36.30;;;;;;5074596;28;20338;-59
2021/01/13 05:41:10;;;;;;;;;;;27.20;36.40;;;;;;5063903;28;20038;-56
2021/01/13 05:43:40;;;;;;;;;;;27.20;36.30;;;;;;5084076;28;19913;-57
2021/01/13 05:46:05;;;;;;;;;;;27.20;36.30;;;;;;5095466;28;19908;-56
2021/01/13 05:48:31;;;;;;;;;;;27.20;36.30;;;;;;5094327;28;19923;-57
2021/01/13 05:50:57;;;;;;;;;;;27.20;36.30;;;;;;5093402;28;20400;-57
2021/01/13 05:53:25;;;;;;;;;;;27.20;36.20;;;;;;5095610;28;19961;-57
2021/01/13 05:55:51;;;;;;;;;;;27.20;36.20;;;;;;5077821;28;19916;-56
2021/01/13 05:58:20;;;;;;;;;;;27.20;36.20;;;;;;5079254;28;19977;-57
2021/01/13 06:00:46;;;;;;;;;;;27.20;36.30;;;;;;5083070;28;19963;-57
2021/01/13 06:03:11;;;;;;;;;;;27.20;36.20;;;;;;5089068;28;19959;-57
2021/01/13 06:05:47;;;;;;;;;;;27.20;36.20;;;;;;5085852;28;19920;-57
2021/01/13 06:08:13;;;;;;;;;;;27.20;36.20;;;;;;5084779;28;20358;-57
2021/01/13 06:10:39;;;;;;;;;;;27.20;36.20;;;;;;5095040;28;19908;-57
2021/01/13 06:13:05;;;;;;;;;;;27.20;36.20;;;;;;5094908;28;19912;-56
2021/01/13 06:15:31;;;;;;;;;;;27.20;36.10;;;;;;5084758;28;19912;-57
2021/01/13 06:17:57;;;;;;;;;;;27.20;36.20;;;;;;5077097;28;20701;-57
2021/01/13 06:20:26;;;;;;;;;;;27.20;36.20;;;;;;5085225;28;20404;-57
2021/01/13 06:22:52;;;;;;;;;;;27.20;36.10;;;;;;5095066;28;19912;-57
2021/01/13 06:25:25;;;;;;;;;;;27.20;36.20;;;;;;5082424;28;20248;-58
2021/01/13 06:28:08;;;;;;;;;;;27.20;36.10;;;;;;5084927;28;19919;-57
2021/01/13 06:30:43;;;;;;;;;;;27.20;36.10;;;;;;5076464;28;19928;-57
2021/01/13 06:33:08;;;;;;;;;;;27.20;36.20;;;;;;5084263;28;19908;-56
2021/01/13 06:35:40;;;;;;;;;;;27.20;36.10;;;;;;5074464;28;19915;-57
2021/01/13 06:38:06;;;;;;;;;;;27.20;36.10;;;;;;5074004;28;19939;-57
2021/01/13 06:40:32;;;;;;;;;;;27.20;36.10;;;;;;5073495;28;20726;-57
2021/01/13 06:42:57;;;;;;;;;;;27.20;36.00;;;;;;5074252;28;20362;-57
2021/01/13 06:45:29;;;;;;;;;;;27.20;36.10;;;;;;5074392;28;19931;-56
2021/01/13 06:47:55;;;;;;;;;;;27.20;36.10;;;;;;5082087;28;19919;-56
2021/01/13 06:50:29;;;;;;;;;;;27.20;36.00;;;;;;5093437;28;20127;-57
2021/01/13 06:52:55;;;;;;;;;;;27.20;36.00;;;;;;5094210;28;19959;-57
2021/01/13 06:55:23;;;;;;;;;;;27.20;36.00;;;;;;5091542;28;19955;-57
2021/01/13 06:57:48;;;;;;;;;;;27.20;36.00;;;;;;5092611;28;19923;-57
2021/01/13 07:00:23;;;;;;;;;;;27.20;36.00;;;;;;5084515;28;19912;-56
2021/01/13 07:02:48;;;;;;;;;;;27.20;36.00;;;;;;5088339;28;20314;-57
2021/01/13 07:05:19;;;;;;;;;;;27.20;36.00;;;;;;5073597;28;19909;-57
2021/01/13 07:07:44;;;;;;;;;;;27.20;36.00;;;;;;5087496;28;20285;-56
2021/01/13 07:10:10;;;;;;;;;;;27.20;36.00;;;;;;5084137;28;19912;-57
2021/01/13 07:12:36;;;;;;;;;;;27.20;36.00;;;;;;5073472;28;19959;-58
2021/01/13 07:15:02;;;;;;;;;;;27.20;36.00;;;;;;5086370;28;19947;-57
2021/01/13 07:17:28;;;;;;;;;;;27.20;36.00;;;;;;5088849;28;20029;-56
2021/01/13 07:19:54;;;;;;;;;;;27.20;35.90;;;;;;5078073;28;20365;-56
2021/01/13 07:22:20;;;;;;;;;;;27.20;35.90;;;;;;5093578;28;19908;-56
2021/01/13 07:24:46;;;;;;;;;;;27.20;36.00;;;;;;5080589;28;19917;-57
2021/01/13 07:27:12;;;;;;;;;;;27.20;36.00;;;;;;5079221;28;20401;-57
2021/01/13 07:29:37;;;;;;;;;;;27.20;36.00;;;;;;5081492;28;20361;-56
2021/01/13 07:32:03;;;;;;;;;;;27.20;36.00;;;;;;5088494;28;19946;-57
2021/01/13 07:34:29;;;;;;;;;;;27.20;36.00;;;;;;5093319;28;19909;-56
2021/01/13 07:36:58;;;;;;;;;;;27.20;36.00;;;;;;5093516;28;19951;-59
2021/01/13 07:39:25;;;;;;;;;;;27.20;36.00;;;;;;5083244;28;19924;-58
2021/01/13 07:42:03;;;;;;;;;;;27.20;36.00;;;;;;5093582;28;19974;-57
2021/01/13 07:44:46;;;;;;;;;;;27.20;36.00;;;;;;5091390;28;19958;-57
2021/01/13 07:47:24;;;;;;;;;;;27.20;36.00;;;;;;5089108;28;20377;-57
2021/01/13 07:49:53;;;;;;;;;;;27.20;36.00;;;;;;5092388;28;20384;-57
2021/01/13 07:52:19;;;;;;;;;;;27.20;35.90;;;;;;5091692;28;19918;-56
2021/01/13 07:54:47;;;;;;;;;;;27.10;35.90;;;;;;5083187;28;19912;-57
2021/01/13 07:57:12;;;;;;;;;;;27.10;35.90;;;;;;5073809;28;19920;-57
2021/01/13 07:59:41;;;;;;;;;;;27.20;36.00;;;;;;5087080;28;19908;-51
2021/01/13 08:02:26;;;;;;;;;;;27.20;36.00;;;;;;5052151;28;19955;-51
2021/01/13 08:05:01;;;;;;;;;;;27.20;33.70;;;;;;5085857;28;19934;-53
2021/01/13 08:07:47;;;;;;;;;;;27.20;29.90;;;;;;5081570;28;19913;-52
2021/01/13 08:10:13;;;;;;;;;;;27.10;27.70;;;;;;5068477;28;19970;-56
2021/01/13 08:12:57;;;;;;;;;;;27.10;26.70;;;;;;5072806;28;20366;-54
2021/01/13 08:15:41;;;;;;;;;;;27.10;27.70;;;;;;5081389;28;19912;-55
2021/01/13 08:18:25;;;;;;;;;;;27.10;28.80;;;;;;5052498;28;19960;-58
2021/01/13 08:21:58;;;;;;;;;;;27.20;29.50;;;;;;5078384;28;20287;-52
2021/01/13 08:24:14;;;;;;;;;;;27.30;30.10;;;;;;5093090;28;19995;-50
2021/01/13 08:26:39;;;;;;;;;;;27.50;30.00;;;;;;5084621;28;19916;-58
2021/01/13 08:29:06;;;;;;;;;;;27.60;30.10;;;;;;5080318;28;20286;-56
2021/01/13 08:31:32;;;;;;;;;;;27.70;30.00;;;;;;5092522;28;19999;-57
2021/01/13 08:34:15;;;;;;;;;;;27.90;30.00;;;;;;5092608;28;20077;-56
2021/01/13 08:36:54;;;;;;;;;;;28.00;30.00;;;;;;5071366;28;19912;-54
2021/01/13 08:39:25;;;;;;;;;;;28.10;29.90;;;;;;5091110;28;19912;-56
2021/01/13 08:41:51;;;;;;;;;;;28.20;29.80;;;;;;5092602;28;19912;-58
2021/01/13 08:44:17;;;;;;;;;;;28.20;29.90;;;;;;5092113;28;19923;-60
2021/01/13 08:46:46;;;;;;;;;;;28.30;30.00;;;;;;5061190;28;20255;-58
2021/01/13 08:49:19;;;;;;;;;;;28.30;30.00;;;;;;5057219;28;19924;-55
2021/01/13 08:52:03;;;;;;;;;;;28.40;30.10;;;;;;5052558;28;20267;-57
2021/01/13 08:54:29;;;;;;;;;;;28.40;30.10;;;;;;5078541;28;19977;-59
2021/01/13 08:56:58;;;;;;;;;;;28.40;30.30;;;;;;5092559;28;20013;-58
2021/01/13 08:59:50;;;;;;;;;;;28.40;30.40;;;;;;5086542;28;19912;-60
2021/01/13 09:02:17;;;;;;;;;;;28.40;30.40;;;;;;5088985;28;19912;-61
2021/01/13 09:04:45;;;;;;;;;;;28.50;30.60;;;;;;5085535;28;19923;-53
2021/01/13 09:07:11;;;;;;;;;;;28.50;30.80;;;;;;5077046;28;19978;-56
2021/01/13 09:09:37;;;;;;;;;;;28.50;30.70;;;;;;5093728;28;20390;-55
2021/01/13 09:12:22;;;;;;;;;;;28.50;30.70;;;;;;5096430;28;20000;-58
2021/01/13 09:15:03;;;;;;;;;;;28.60;30.80;;;;;;5095975;28;20377;-54
2021/01/13 09:17:29;;;;;;;;;;;28.60;31.00;;;;;;5083470;28;19921;-62
2021/01/13 09:19:54;;;;;;;;;;;28.60;31.00;;;;;;5080770;28;20335;-59
2021/01/13 09:22:20;;;;;;;;;;;28.60;31.10;;;;;;5071396;28;19913;-53
2021/01/13 09:24:45;;;;;;;;;;;28.60;31.10;;;;;;5084248;28;19924;-56
2021/01/13 09:27:11;;;;;;;;;;;28.60;31.40;;;;;;5081709;28;20008;-56
2021/01/13 09:29:46;;;;;;;;;;;28.50;31.90;;;;;;5082800;28;19912;-59
2021/01/13 09:32:12;;;;;;;;;;;28.50;31.80;;;;;;5075702;28;19916;-56
2021/01/13 09:34:38;;;;;;;;;;;28.60;31.70;;;;;;5078031;28;20009;-57
2021/01/13 09:37:03;;;;;;;;;;;28.60;31.50;;;;;;5095732;28;19916;-59
2021/01/13 09:39:32;;;;;;;;;;;28.70;31.60;;;;;;5095617;28;19908;-60
2021/01/13 09:41:58;;;;;;;;;;;28.70;31.70;;;;;;5095668;28;19908;-58
2021/01/13 09:44:26;;;;;;;;;;;28.70;31.60;;;;;;5094250;28;20380;-59
2021/01/13 09:46:51;;;;;;;;;;;28.80;31.80;;;;;;5088402;28;20342;-59
2021/01/13 09:49:17;;;;;;;;;;;28.80;31.90;;;;;;5079898;28;19952;-58
2021/01/13 09:51:42;;;;;;;;;;;28.80;31.90;;;;;;5080176;28;19974;-57
2021/01/13 09:54:08;;;;;;;;;;;28.70;31.90;;;;;;5084114;28;19967;-61
2021/01/13 09:56:34;;;;;;;;;;;28.70;32.20;;;;;;5083337;28;19919;-64
2021/01/13 09:59:00;;;;;;;;;;;28.70;32.30;;;;;;5080191;28;19921;-58
2021/01/13 10:01:36;;;;;;;;;;;28.70;32.20;;;;;;5075092;28;19908;-63
2021/01/13 10:04:07;;;;;;;;;;;28.80;32.40;;;;;;5075198;28;19924;-64
2021/01/13 10:06:33;;;;;;;;;;;28.90;32.20;;;;;;5078233;28;19919;-62
2021/01/13 10:08:59;;;;;;;;;;;28.90;32.10;;;;;;5077321;28;19913;-63
2021/01/13 10:11:27;;;;;;;;;;;28.90;32.10;;;;;;5075455;28;20041;-60
2021/01/13 10:13:57;;;;;;;;;;;29.00;32.10;;;;;;5074960;28;19932;-61
2021/01/13 10:16:23;;;;;;;;;;;29.00;32.20;;;;;;5090311;28;20393;-60
2021/01/13 10:18:55;;;;;;;;;;;29.00;32.10;;;;;;5093356;28;19920;-61
2021/01/13 10:21:20;;;;;;;;;;;29.00;32.10;;;;;;5094911;28;19921;-53
2021/01/13 10:23:46;;;;;;;;;;;29.00;32.20;;;;;;5091597;28;19916;-60
2021/01/13 10:26:12;;;;;;;;;;;29.00;32.20;;;;;;5079188;28;20373;-63
2021/01/13 10:28:37;;;;;;;;;;;29.10;32.30;;;;;;5082632;28;19912;-76
2021/01/13 10:31:03;;;;;;;;;;;29.10;32.30;;;;;;5079686;28;19927;-72
2021/01/13 10:33:48;;;;;;;;;;;29.10;32.30;;;;;;5093174;28;20324;-58
2021/01/13 10:36:24;;;;;;;;;;;29.10;32.90;;;;;;5078190;28;19913;-59
2021/01/13 10:38:50;;;;;;;;;;;29.10;32.60;;;;;;5073845;28;19921;-54
2021/01/13 10:41:16;;;;;;;;;;;29.10;32.50;;;;;;5075445;28;19909;-62
2021/01/13 10:43:41;;;;;;;;;;;29.00;32.80;;;;;;5075285;28;19958;-60
2021/01/13 10:46:07;;;;;;;;;;;29.10;32.90;;;;;;5074917;28;19916;-57
2021/01/13 10:48:33;;;;;;;;;;;29.10;32.70;;;;;;5094315;28;19929;-60
2021/01/13 10:50:58;;;;;;;;;;;29.10;32.60;;;;;;5090929;28;20380;-62
2021/01/13 10:53:29;;;;;;;;;;;29.10;32.60;;;;;;5088267;28;19913;-55
2021/01/13 10:55:54;;;;;;;;;;;29.10;32.60;;;;;;5076173;28;19922;-62
2021/01/13 10:58:20;;;;;;;;;;;29.10;32.60;;;;;;5069566;28;19921;-61
2021/01/13 11:00:45;;;;;;;;;;;29.10;32.50;;;;;;5074845;28;20382;-56
2021/01/13 11:03:11;;;;;;;;;;;29.10;32.50;;;;;;5073712;28;20294;-55
2021/01/13 11:05:38;;;;;;;;;;;29.20;33.20;;;;;;5073786;28;19913;-58
2021/01/13 11:08:04;;;;;;;;;;;29.20;32.60;;;;;;5074753;28;19942;-60
2021/01/13 11:10:29;;;;;;;;;;;29.20;32.60;;;;;;5073467;28;19912;-60
2021/01/13 11:12:58;;;;;;;;;;;29.20;32.50;;;;;;5088930;28;19908;-58
2021/01/13 11:15:24;;;;;;;;;;;29.20;32.50;;;;;;5093858;28;19919;-54
2021/01/13 11:17:49;;;;;;;;;;;29.10;32.60;;;;;;5089960;28;19916;-59
2021/01/13 11:20:15;;;;;;;;;;;29.10;33.60;;;;;;5092472;28;20563;-59
2021/01/13 11:22:44;;;;;;;;;;;29.10;33.00;;;;;;5078642;28;19909;-59
2021/01/13 11:25:36;;;;;;;;;;;29.00;33.00;;;;;;5090550;28;20362;-57
2021/01/13 11:28:02;;;;;;;;;;;29.10;32.90;;;;;;5078579;28;19912;-67
2021/01/13 11:30:28;;;;;;;;;;;29.20;32.90;;;;;;5090605;28;19924;-63
2021/01/13 11:32:55;;;;;;;;;;;29.20;32.90;;;;;;5092378;28;19922;-61
2021/01/13 11:35:24;;;;;;;;;;;29.00;33.00;;;;;;5091805;28;19961;-56
2021/01/13 11:37:51;;;;;;;;;;;29.00;33.10;;;;;;5087593;28;19927;-54
2021/01/13 11:40:24;;;;;;;;;;;29.00;33.00;;;;;;5073112;28;19912;-57
2021/01/13 11:43:08;;;;;;;;;;;29.00;32.90;;;;;;5073206;28;19908;-56
2021/01/13 11:45:36;;;;;;;;;;;29.00;32.80;;;;;;5076797;28;19921;-55
2021/01/13 11:48:05;;;;;;;;;;;29.00;32.80;;;;;;5085956;28;19923;-52
2021/01/13 11:50:30;;;;;;;;;;;29.00;32.70;;;;;;5093147;28;19908;-53
2021/01/13 11:52:57;;;;;;;;;;;29.00;32.70;;;;;;5076256;28;20328;-53
2021/01/13 11:55:27;;;;;;;;;;;29.00;32.80;;;;;;5085612;28;19966;-57
2021/01/13 11:57:52;;;;;;;;;;;29.00;32.70;;;;;;5072698;28;19970;-58
2021/01/13 12:00:18;;;;;;;;;;;29.00;32.70;;;;;;5093309;28;19927;-57
2021/01/13 12:02:47;;;;;;;;;;;29.10;32.70;;;;;;5072758;28;20008;-57
2021/01/13 12:05:34;;;;;;;;;;;29.10;33.20;;;;;;5069116;28;19935;-57
2021/01/13 12:08:09;;;;;;;;;;;29.10;32.70;;;;;;5079421;28;19965;-54
2021/01/13 12:10:35;;;;;;;;;;;29.10;32.60;;;;;;5093182;28;19936;-57
2021/01/13 12:13:13;;;;;;;;;;;29.10;32.80;;;;;;5091576;28;19993;-54
2021/01/13 12:15:45;;;;;;;;;;;29.10;32.70;;;;;;5092764;28;19912;-57
2021/01/13 12:18:11;;;;;;;;;;;29.10;33.00;;;;;;5092656;28;19916;-51
2021/01/13 12:20:36;;;;;;;;;;;29.10;32.90;;;;;;5088907;28;19913;-58
2021/01/13 12:23:21;;;;;;;;;;;29.20;32.60;;;;;;5077753;28;20384;-54
2021/01/13 12:25:47;;;;;;;;;;;29.10;34.30;;;;;;5075296;28;19912;-59
2021/01/13 12:28:13;;;;;;;;;;;29.20;34.40;;;;;;5086528;28;20332;-60
2021/01/13 12:30:51;;;;;;;;;;;29.50;34.20;;;;;;5091247;28;19920;-59
2021/01/13 12:33:17;;;;;;;;;;;29.70;34.00;;;;;;5092886;28;19981;-60
2021/01/13 12:35:43;;;;;;;;;;;29.80;33.80;;;;;;5092708;28;19953;-61
2021/01/13 12:38:08;;;;;;;;;;;29.90;33.80;;;;;;5089395;28;19924;-60
2021/01/13 12:40:34;;;;;;;;;;;30.00;33.80;;;;;;5076369;28;20271;-60
2021/01/13 12:43:15;;;;;;;;;;;30.00;33.90;;;;;;5077037;28;19966;-60
2021/01/13 12:45:41;;;;;;;;;;;30.10;34.00;;;;;;5076520;28;20350;-60
2021/01/13 12:48:07;;;;;;;;;;;30.10;34.10;;;;;;5093242;28;19951;-62
2021/01/13 12:50:32;;;;;;;;;;;30.10;34.30;;;;;;5096940;28;19908;-62
2021/01/13 12:52:59;;;;;;;;;;;30.20;34.40;;;;;;5080291;28;19916;-60
2021/01/13 12:55:25;;;;;;;;;;;30.20;34.40;;;;;;5091311;28;19919;-59
2021/01/13 12:57:50;;;;;;;;;;;30.20;34.40;;;;;;5096482;28;20362;-59
2021/01/13 13:00:16;;;;;;;;;;;30.20;34.60;;;;;;5096350;28;19908;-61
2021/01/13 13:02:41;;;;;;;;;;;30.20;34.50;;;;;;5082531;28;19956;-59
2021/01/13 13:05:08;;;;;;;;;;;30.20;34.60;;;;;;5076211;28;20359;-58
2021/01/13 13:07:34;;;;;;;;;;;30.30;34.80;;;;;;5079362;28;19919;-59
2021/01/13 13:09:59;;;;;;;;;;;30.30;34.80;;;;;;5076153;28;19909;-53
2021/01/13 13:12:25;;;;;;;;;;;30.30;34.80;;;;;;5075789;28;19935;-63
2021/01/13 13:14:50;;;;;;;;;;;30.30;34.80;;;;;;5076018;28;19954;-60
2021/01/13 13:17:16;;;;;;;;;;;30.30;35.00;;;;;;5079505;28;20282;-60
2021/01/13 13:19:41;;;;;;;;;;;30.30;35.00;;;;;;5075616;28;19965;-59
2021/01/13 13:22:07;;;;;;;;;;;30.30;35.00;;;;;;5084355;28;19920;-60
2021/01/13 13:24:32;;;;;;;;;;;30.30;35.10;;;;;;5083998;28;20352;-66
2021/01/13 13:26:58;;;;;;;;;;;30.30;35.10;;;;;;5084505;28;19919;-60
2021/01/13 13:29:23;;;;;;;;;;;30.30;35.20;;;;;;5083002;28;19985;-58
2021/01/13 13:31:49;;;;;;;;;;;30.10;29.40;;;;;;5088987;28;19927;-60
2021/01/13 13:34:14;;;;;;;;;;;28.90;27.70;;;;;;5075657;28;20003;-59
2021/01/13 13:36:40;;;;;;;;;;;27.90;31.30;;;;;;5076859;28;19921;-58
2021/01/13 13:39:05;;;;;;;;;;;28.00;34.50;;;;;;5077233;28;19935;-60
2021/01/13 13:41:31;;;;;;;;;;;28.20;37.80;;;;;;5095476;28;20019;-58
2021/01/13 13:43:56;;;;;;;;;;;28.40;40.90;;;;;;5095753;28;19908;-56
2021/01/13 13:46:22;;;;;;;;;;;28.60;42.30;;;;;;5092765;28;19920;-58
2021/01/13 13:48:47;;;;;;;;;;;28.80;41.50;;;;;;5074911;28;19915;-60
2021/01/13 13:51:14;;;;;;;;;;;28.90;40.90;;;;;;5088722;28;19912;-59
2021/01/13 13:53:39;;;;;;;;;;;28.80;40.60;;;;;;5082579;28;19912;-59
2021/01/13 13:56:05;;;;;;;;;;;28.90;40.20;;;;;;5095583;28;19962;-56
2021/01/13 13:58:30;;;;;;;;;;;28.90;40.10;;;;;;5081312;28;19931;-59
2021/01/13 14:00:56;;;;;;;;;;;28.90;40.30;;;;;;5075253;28;20045;-57
2021/01/13 14:03:22;;;;;;;;;;;28.90;40.00;;;;;;5075105;28;19912;-57
2021/01/13 14:05:47;;;;;;;;;;;28.90;39.80;;;;;;5084409;28;20025;-59
2021/01/13 14:08:13;;;;;;;;;;;29.00;39.90;;;;;;5077492;28;20077;-61
2021/01/13 14:10:38;;;;;;;;;;;28.90;39.50;;;;;;5074961;28;19908;-67
2021/01/13 14:13:03;;;;;;;;;;;28.90;39.60;;;;;;5088359;28;20011;-60
2021/01/13 14:15:29;;;;;;;;;;;28.90;39.60;;;;;;5095235;28;19909;-58
2021/01/13 14:17:54;;;;;;;;;;;29.00;39.30;;;;;;5079222;28;20438;-63
2021/01/13 14:20:20;;;;;;;;;;;29.00;39.10;;;;;;5074663;28;19908;-63
2021/01/13 14:22:45;;;;;;;;;;;29.00;39.10;;;;;;5087415;28;19912;-69
2021/01/13 14:25:11;;;;;;;;;;;29.00;39.10;;;;;;5074734;28;20273;-58